Time;durP1;ratioP1;P1;durP2;ratioP2;P2;SDS_P1;SDS_P2;PMS_P1;PMS_P2;Temp;Humidity;BMP_temperature;BMP_pressure;BME280_temperature;BME280_humidity;BME280_pressure;Samples;Min_cycle;Max_cycle;Signal;HPM_P1;HPM_P2
2024/01/06 00:00:41;;;;;;;;;;;;;;;8.42;59.40;99485.75;5032102;28;20302;-88
2024/01/06 00:03:07;;;;;;;;;;;;;;;8.43;59.52;99490.03;5032108;28;19924;-88
2024/01/06 00:05:32;;;;;;;;;;;;;;;8.46;59.55;99489.69;5032241;28;20011;-88
2024/01/06 00:07:57;;;;;;;;;;;;;;;8.51;59.30;99494.47;5032199;28;19920;-88
2024/01/06 00:10:22;;;;;;;;;;;;;;;8.52;59.47;99491.66;5031758;28;19913;-88
2024/01/06 00:12:48;;;;;;;;;;;;;;;8.55;59.56;99480.81;5032123;28;19914;-88
2024/01/06 00:15:14;;;;;;;;;;;;;;;8.57;59.65;99476.19;5032061;28;19913;-87
2024/01/06 00:17:39;;;;;;;;;;;;;;;8.61;59.56;99484.56;5030816;28;20356;-88
2024/01/06 00:20:05;;;;;;;;;;;;;;;8.63;59.62;99493.13;5031956;28;19956;-88
2024/01/06 00:22:30;;;;;;;;;;;;;;;8.64;59.48;99494.78;5030509;28;19928;-88
2024/01/06 00:24:55;;;;;;;;;;;;;;;8.66;59.25;99497.22;5031918;28;19917;-88
2024/01/06 00:27:20;;;;;;;;;;;;;;;8.64;59.53;99493.94;5030681;28;20393;-88
2024/01/06 00:29:47;;;;;;;;;;;;;;;8.63;59.35;99493.13;5031626;28;19917;-88
2024/01/06 00:32:12;;;;;;;;;;;;;;;8.63;59.33;99494.94;5030379;28;20322;-87
2024/01/06 00:34:37;;;;;;;;;;;;;;;8.59;59.48;99500.53;5031778;28;19913;-88
2024/01/06 00:37:03;;;;;;;;;;;;;;;8.57;59.49;99499.88;5030645;28;19920;-88
2024/01/06 00:39:28;;;;;;;;;;;;;;;8.54;59.76;99502.03;5031652;28;19979;-88
2024/01/06 00:41:54;;;;;;;;;;;;;;;8.53;59.41;99498.56;5031638;28;20135;-88
2024/01/06 00:44:19;;;;;;;;;;;;;;;8.56;59.59;99487.72;5031708;28;19924;-88
2024/01/06 00:46:44;;;;;;;;;;;;;;;8.59;59.43;99497.09;5030435;28;19914;-88
2024/01/06 00:49:10;;;;;;;;;;;;;;;8.60;59.32;99501.34;5031776;28;19913;-88
2024/01/06 00:51:35;;;;;;;;;;;;;;;8.59;59.38;99486.56;5030480;28;19913;-87
2024/01/06 00:54:01;;;;;;;;;;;;;;;8.60;59.33;99480.31;5030367;28;20306;-88
2024/01/06 00:56:27;;;;;;;;;;;;;;;8.60;59.45;99478.50;5030067;28;19974;-88
2024/01/06 00:58:52;;;;;;;;;;;;;;;8.63;59.16;99481.78;5031516;28;19964;-88
2024/01/06 01:01:18;;;;;;;;;;;;;;;8.62;59.41;99480.97;5030458;28;20354;-88
2024/01/06 01:03:43;;;;;;;;;;;;;;;8.59;59.05;99489.19;5030196;28;19921;-88
2024/01/06 01:06:08;;;;;;;;;;;;;;;8.62;59.02;99490.66;5031541;28;19913;-88
2024/01/06 01:08:34;;;;;;;;;;;;;;;8.61;58.92;99489.84;5030266;28;19913;-88
2024/01/06 01:10:59;;;;;;;;;;;;;;;8.58;59.07;99469.13;5031568;28;19913;-87
2024/01/06 01:13:24;;;;;;;;;;;;;;;8.56;59.00;99468.47;5031535;28;20000;-88
2024/01/06 01:15:50;;;;;;;;;;;;;;;8.57;58.98;99470.94;5031327;28;19951;-88
2024/01/06 01:18:15;;;;;;;;;;;;;;;8.59;59.07;99468.94;5030004;28;19913;-88
2024/01/06 01:20:43;;;;;;;;;;;;;;;8.62;59.35;99466.97;5029966;28;19913;-88
2024/01/06 01:23:09;;;;;;;;;;;;;;;8.64;59.07;99465.81;5032036;28;19921;-88
2024/01/06 01:25:34;;;;;;;;;;;;;;;8.67;59.14;99470.75;5034971;28;19924;-88
2024/01/06 01:27:59;;;;;;;;;;;;;;;8.68;58.80;99466.31;5034810;28;19914;-87
2024/01/06 01:30:24;;;;;;;;;;;;;;;8.70;59.09;99465.16;5033579;28;20437;-88
2024/01/06 01:32:50;;;;;;;;;;;;;;;8.72;58.99;99463.16;5034865;28;19919;-88
2024/01/06 01:35:15;;;;;;;;;;;;;;;8.72;59.18;99472.88;5034968;28;19919;-88
2024/01/06 01:37:40;;;;;;;;;;;;;;;8.68;58.94;99453.97;5034825;28;20386;-88
2024/01/06 01:40:06;;;;;;;;;;;;;;;8.69;59.23;99452.16;5033653;28;19917;-88
2024/01/06 01:42:32;;;;;;;;;;;;;;;8.68;59.09;99446.06;5035094;28;20445;-88
2024/01/06 01:44:57;;;;;;;;;;;;;;;8.68;59.07;99446.06;5033391;28;19972;-88
2024/01/06 01:47:23;;;;;;;;;;;;;;;8.67;59.03;99430.44;5033555;28;19913;-87
2024/01/06 01:49:49;;;;;;;;;;;;;;;8.70;59.34;99428.31;5033502;28;19913;-87
2024/01/06 01:52:14;;;;;;;;;;;;;;;8.74;59.18;99428.78;5034584;28;19913;-86
2024/01/06 01:54:40;;;;;;;;;;;;;;;8.76;59.04;99419.72;5034522;28;20444;-87
2024/01/06 01:57:06;;;;;;;;;;;;;;;8.76;59.19;99421.53;5034782;28;19916;-88
2024/01/06 01:59:32;;;;;;;;;;;;;;;8.75;58.94;99409.38;5033227;28;19917;-87
2024/01/06 02:01:57;;;;;;;;;;;;;;;8.78;59.17;99411.66;5033219;28;19917;-88
2024/01/06 02:04:22;;;;;;;;;;;;;;;8.78;59.29;99404.59;5034378;28;20034;-88
2024/01/06 02:06:47;;;;;;;;;;;;;;;8.79;59.30;99389.59;5033109;28;19913;-88
2024/01/06 02:09:13;;;;;;;;;;;;;;;8.76;59.57;99392.59;5033053;28;20445;-87
2024/01/06 02:11:38;;;;;;;;;;;;;;;8.75;59.34;99391.75;5033079;28;19920;-88
2024/01/06 02:14:03;;;;;;;;;;;;;;;8.77;59.35;99402.13;5033017;28;20410;-87
2024/01/06 02:16:28;;;;;;;;;;;;;;;8.75;59.33;99401.47;5033952;28;19948;-88
2024/01/06 02:18:54;;;;;;;;;;;;;;;8.74;59.28;99398.03;5032862;28;19920;-88
2024/01/06 02:21:21;;;;;;;;;;;;;;;8.76;59.29;99398.66;5032645;28;20356;-88
2024/01/06 02:23:47;;;;;;;;;;;;;;;8.77;59.56;99396.84;5032594;28;19921;-88
2024/01/06 02:26:13;;;;;;;;;;;;;;;8.77;59.63;99396.84;5032703;28;19920;-88
2024/01/06 02:28:39;;;;;;;;;;;;;;;8.77;59.56;99397.69;5032735;28;19914;-88
2024/01/06 02:31:04;;;;;;;;;;;;;;;8.75;59.75;99404.94;5033991;28;20501;-88
2024/01/06 02:33:30;;;;;;;;;;;;;;;8.76;59.71;99409.19;5032161;28;19913;-88
2024/01/06 02:35:55;;;;;;;;;;;;;;;8.74;59.79;99397.19;5032797;28;19962;-88
2024/01/06 02:38:20;;;;;;;;;;;;;;;8.76;60.06;99403.94;5033750;28;19996;-88
2024/01/06 02:40:45;;;;;;;;;;;;;;;8.78;59.70;99403.75;5033734;28;20398;-88
2024/01/06 02:43:11;;;;;;;;;;;;;;;8.78;59.76;99396.69;5033876;28;19964;-88
2024/01/06 02:45:36;;;;;;;;;;;;;;;8.78;59.81;99407.22;5033461;28;20442;-88
2024/01/06 02:48:01;;;;;;;;;;;;;;;8.77;59.75;99407.38;5033595;28;20393;-88
2024/01/06 02:50:26;;;;;;;;;;;;;;;8.75;59.88;99404.94;5033594;28;20055;-88
2024/01/06 02:52:52;;;;;;;;;;;;;;;8.74;59.80;99402.47;5032106;28;19940;-88
2024/01/06 02:55:17;;;;;;;;;;;;;;;8.71;60.01;99398.34;5031941;28;19920;-88
2024/01/06 02:57:42;;;;;;;;;;;;;;;8.69;59.90;99386.34;5032014;28;19986;-88
2024/01/06 03:00:08;;;;;;;;;;;;;;;8.64;60.32;99386.88;5032657;28;19920;-88
2024/01/06 03:02:35;;;;;;;;;;;;;;;8.63;60.27;99392.28;5033432;28;20287;-87
2024/01/06 03:05:00;;;;;;;;;;;;;;;8.56;60.23;99395.59;5031919;28;20387;-88
2024/01/06 03:07:26;;;;;;;;;;;;;;;8.51;61.03;99389.22;5033019;28;19920;-88
2024/01/06 03:09:51;;;;;;;;;;;;;;;8.50;60.98;99393.66;5033259;28;20295;-88
2024/01/06 03:12:17;;;;;;;;;;;;;;;8.47;61.06;99393.16;5033255;28;19964;-88
2024/01/06 03:14:42;;;;;;;;;;;;;;;8.45;60.79;99401.22;5031767;28;20011;-88
2024/01/06 03:17:10;;;;;;;;;;;;;;;8.43;60.63;99403.19;5031644;28;19963;-88
2024/01/06 03:19:35;;;;;;;;;;;;;;;8.39;61.29;99401.91;5032951;28;19924;-87
2024/01/06 03:22:01;;;;;;;;;;;;;;;8.37;61.16;99401.25;5031415;28;19913;-88
2024/01/06 03:24:26;;;;;;;;;;;;;;;8.37;61.59;99408.31;5032732;28;19963;-88
2024/01/06 03:26:52;;;;;;;;;;;;;;;8.26;61.73;99405.00;5033011;28;20310;-88
2024/01/06 03:29:17;;;;;;;;;;;;;;;8.11;62.72;99413.72;5032872;28;19917;-88
2024/01/06 03:31:43;;;;;;;;;;;;;;;8.11;62.43;99409.28;5032895;28;19913;-88
2024/01/06 03:34:10;;;;;;;;;;;;;;;8.08;62.22;99412.22;5032963;28;20413;-88
2024/01/06 03:36:35;;;;;;;;;;;;;;;8.11;62.21;99417.16;5031483;28;20070;-88
2024/01/06 03:39:00;;;;;;;;;;;;;;;8.06;62.50;99411.56;5032703;28;20016;-88
2024/01/06 03:41:26;;;;;;;;;;;;;;;8.07;62.68;99412.41;5031265;28;20295;-88
2024/01/06 03:43:51;;;;;;;;;;;;;;;8.08;62.72;99412.22;5032834;28;19917;-87
2024/01/06 03:46:16;;;;;;;;;;;;;;;8.09;62.78;99413.88;5031729;28;20374;-88
2024/01/06 03:48:41;;;;;;;;;;;;;;;8.15;62.02;99415.03;5031121;28;19913;-88
2024/01/06 03:51:07;;;;;;;;;;;;;;;8.10;62.92;99418.16;5031252;28;19917;-88
2024/01/06 03:53:32;;;;;;;;;;;;;;;8.10;62.62;99414.69;5032450;28;19913;-88
2024/01/06 03:55:58;;;;;;;;;;;;;;;8.15;63.30;99415.03;5032698;28;20016;-88
2024/01/06 03:58:23;;;;;;;;;;;;;;;8.21;62.74;99417.84;5031197;28;19913;-88
2024/01/06 04:00:48;;;;;;;;;;;;;;;8.26;62.86;99423.41;5032394;28;20412;-88
2024/01/06 04:03:13;;;;;;;;;;;;;;;8.31;62.37;99422.91;5030959;28;19960;-88
2024/01/06 04:05:39;;;;;;;;;;;;;;;8.32;62.50;99413.22;5032129;28;20383;-88
2024/01/06 04:08:04;;;;;;;;;;;;;;;8.34;62.79;99411.28;5031043;28;19913;-87
2024/01/06 04:10:29;;;;;;;;;;;;;;;8.36;63.10;99409.31;5031433;28;19917;-85
2024/01/06 04:12:54;;;;;;;;;;;;;;;8.36;62.52;99404.03;5030942;28;20306;-87
2024/01/06 04:15:20;;;;;;;;;;;;;;;8.41;62.67;99407.00;5030793;28;19962;-87
2024/01/06 04:17:48;;;;;;;;;;;;;;;8.44;62.26;99409.28;5030703;28;19920;-88
2024/01/06 04:20:13;;;;;;;;;;;;;;;8.48;62.49;99413.22;5030719;28;19921;-88
2024/01/06 04:22:38;;;;;;;;;;;;;;;8.53;61.82;99416.16;5030544;28;19921;-87
2024/01/06 04:25:04;;;;;;;;;;;;;;;8.52;62.17;99414.53;5031894;28;19924;-88
2024/01/06 04:27:29;;;;;;;;;;;;;;;8.50;62.17;99422.59;5030608;28;20047;-88
2024/01/06 04:29:54;;;;;;;;;;;;;;;8.47;62.50;99420.28;5032272;28;19913;-88
2024/01/06 04:32:20;;;;;;;;;;;;;;;8.49;62.36;99412.22;5031831;28;19913;-87
2024/01/06 04:34:45;;;;;;;;;;;;;;;8.49;62.38;99412.22;5030575;28;19952;-88
2024/01/06 04:37:10;;;;;;;;;;;;;;;8.49;62.55;99420.13;5030427;28;19913;-88
2024/01/06 04:39:35;;;;;;;;;;;;;;;8.51;62.48;99424.22;5031710;28;19913;-88
2024/01/06 04:42:01;;;;;;;;;;;;;;;8.54;61.97;99433.59;5031814;28;19913;-88
2024/01/06 04:44:26;;;;;;;;;;;;;;;8.56;62.02;99426.38;5031799;28;20001;-87
2024/01/06 04:46:51;;;;;;;;;;;;;;;8.57;62.28;99418.31;5031534;28;20001;-87
2024/01/06 04:49:16;;;;;;;;;;;;;;;8.60;62.36;99417.13;5031683;28;19913;-88
2024/01/06 04:51:42;;;;;;;;;;;;;;;8.60;61.99;99411.88;5031524;28;19992;-87
2024/01/06 04:54:07;;;;;;;;;;;;;;;8.59;62.22;99411.06;5030302;28;19917;-87
2024/01/06 04:56:32;;;;;;;;;;;;;;;8.60;62.13;99414.50;5031803;28;19910;-87
2024/01/06 04:58:57;;;;;;;;;;;;;;;8.58;62.26;99404.16;5034462;28;19913;-87
2024/01/06 05:01:23;;;;;;;;;;;;;;;8.59;62.08;99405.78;5035546;28;20322;-87
2024/01/06 05:03:48;;;;;;;;;;;;;;;8.59;62.43;99404.97;5034051;28;19928;-87
2024/01/06 05:06:13;;;;;;;;;;;;;;;8.59;62.43;99412.88;5034346;28;20302;-87
2024/01/06 05:08:44;;;;;;;;;;;;;;;8.59;62.53;99410.25;5034303;28;19999;-87
2024/01/06 05:11:09;;;;;;;;;;;;;;;8.57;62.56;99413.03;5034275;28;19913;-87
2024/01/06 05:13:35;;;;;;;;;;;;;;;8.58;62.70;99416.50;5034143;28;20417;-87
2024/01/06 05:16:00;;;;;;;;;;;;;;;8.59;62.53;99413.69;5035120;28;19963;-87
2024/01/06 05:18:25;;;;;;;;;;;;;;;8.63;63.05;99416.81;5033840;28;20401;-87
2024/01/06 05:20:50;;;;;;;;;;;;;;;8.63;62.55;99419.44;5034132;28;19920;-87
2024/01/06 05:23:16;;;;;;;;;;;;;;;8.64;62.61;99423.72;5033892;28;19944;-87
2024/01/06 05:25:41;;;;;;;;;;;;;;;8.64;62.70;99422.88;5033870;28;19917;-87
2024/01/06 05:28:06;;;;;;;;;;;;;;;8.65;62.45;99416.63;5035109;28;19966;-87
2024/01/06 05:30:31;;;;;;;;;;;;;;;8.63;62.74;99416.81;5034143;28;20306;-87
2024/01/06 05:32:57;;;;;;;;;;;;;;;8.63;62.58;99419.44;5035412;28;19923;-87
2024/01/06 05:35:23;;;;;;;;;;;;;;;8.63;62.99;99427.34;5033861;28;19913;-87
2024/01/06 05:37:48;;;;;;;;;;;;;;;8.66;62.62;99420.91;5035635;28;20000;-87
2024/01/06 05:40:14;;;;;;;;;;;;;;;8.67;62.50;99427.81;5033706;28;19913;-87
2024/01/06 05:42:39;;;;;;;;;;;;;;;8.67;62.66;99438.34;5034911;28;19913;-87
2024/01/06 05:45:05;;;;;;;;;;;;;;;8.67;62.56;99441.78;5034835;28;19917;-87
2024/01/06 05:47:30;;;;;;;;;;;;;;;8.67;62.39;99439.16;5033498;28;19913;-87
2024/01/06 05:49:56;;;;;;;;;;;;;;;8.67;62.56;99436.53;5033694;28;19920;-87
2024/01/06 05:52:21;;;;;;;;;;;;;;;8.67;63.15;99444.44;5033477;28;19913;-87
2024/01/06 05:54:46;;;;;;;;;;;;;;;8.67;62.85;99444.44;5034562;28;19948;-87
2024/01/06 05:57:11;;;;;;;;;;;;;;;8.67;63.51;99433.91;5033342;28;19910;-87
2024/01/06 05:59:37;;;;;;;;;;;;;;;8.65;63.72;99435.88;5034593;28;20399;-87
2024/01/06 06:02:02;;;;;;;;;;;;;;;8.65;63.22;99425.34;5033319;28;19923;-89
2024/01/06 06:04:27;;;;;;;;;;;;;;;8.66;63.63;99415.66;5033550;28;20386;-87
2024/01/06 06:06:53;;;;;;;;;;;;;;;8.67;63.68;99423.38;5034132;28;19920;-87
2024/01/06 06:09:19;;;;;;;;;;;;;;;8.67;63.69;99420.75;5032076;28;19913;-87
2024/01/06 06:11:45;;;;;;;;;;;;;;;8.67;63.67;99417.28;5033173;28;19945;-87
2024/01/06 06:14:10;;;;;;;;;;;;;;;8.68;63.64;99418.94;5033042;28;20385;-87
2024/01/06 06:16:35;;;;;;;;;;;;;;;8.69;63.60;99423.19;5034196;28;19913;-87
2024/01/06 06:19:01;;;;;;;;;;;;;;;8.68;64.05;99419.75;5034182;28;20310;-87
2024/01/06 06:21:26;;;;;;;;;;;;;;;8.69;63.52;99420.56;5032890;28;20394;-87
2024/01/06 06:23:51;;;;;;;;;;;;;;;8.71;63.81;99426.50;5032758;28;19974;-85
2024/01/06 06:26:16;;;;;;;;;;;;;;;8.76;63.33;99429.44;5032588;28;19924;-87
2024/01/06 06:28:42;;;;;;;;;;;;;;;8.78;63.39;99427.44;5032749;28;19913;-87
2024/01/06 06:31:07;;;;;;;;;;;;;;;8.78;63.63;99419.56;5032659;28;19920;-87
2024/01/06 06:33:35;;;;;;;;;;;;;;;8.74;63.30;99413.81;5033865;28;20368;-87
2024/01/06 06:36:01;;;;;;;;;;;;;;;8.73;63.20;99404.28;5032600;28;19913;-88
2024/01/06 06:38:27;;;;;;;;;;;;;;;8.76;63.25;99416.28;5032898;28;19943;-87
2024/01/06 06:40:52;;;;;;;;;;;;;;;8.79;63.06;99411.50;5033872;28;19913;-87
2024/01/06 06:43:17;;;;;;;;;;;;;;;8.79;63.51;99415.94;5033672;28;20024;-86
2024/01/06 06:45:42;;;;;;;;;;;;;;;8.77;63.18;99407.38;5032290;28;19925;-87
2024/01/06 06:48:08;;;;;;;;;;;;;;;8.79;63.26;99414.13;5032491;28;19913;-88
2024/01/06 06:50:33;;;;;;;;;;;;;;;8.81;62.93;99408.69;5032201;28;20375;-87
2024/01/06 06:52:59;;;;;;;;;;;;;;;8.83;62.98;99402.25;5033988;28;19913;-86
2024/01/06 06:55:24;;;;;;;;;;;;;;;8.82;63.22;99405.88;5031992;28;20008;-89
2024/01/06 06:57:50;;;;;;;;;;;;;;;8.80;63.04;99396.50;5031998;28;19921;-86
2024/01/06 07:00:16;;;;;;;;;;;;;;;8.78;62.81;99403.75;5033356;28;20377;-87
2024/01/06 07:02:41;;;;;;;;;;;;;;;8.72;63.08;99401.81;5031852;28;20409;-88
2024/01/06 07:05:06;;;;;;;;;;;;;;;8.73;63.18;99400.81;5031931;28;19956;-89
2024/01/06 07:07:32;;;;;;;;;;;;;;;8.77;62.98;99394.22;5033303;28;19913;-86
2024/01/06 07:09:57;;;;;;;;;;;;;;;8.79;62.79;99393.06;5031916;28;19913;-88
2024/01/06 07:12:23;;;;;;;;;;;;;;;8.81;62.92;99398.16;5033081;28;20370;-88
2024/01/06 07:14:48;;;;;;;;;;;;;;;8.83;62.94;99390.91;5031724;28;19913;-88
2024/01/06 07:17:13;;;;;;;;;;;;;;;8.84;63.11;99392.56;5031964;28;19913;-88
2024/01/06 07:19:39;;;;;;;;;;;;;;;8.82;62.94;99395.34;5031710;28;19913;-88
2024/01/06 07:22:05;;;;;;;;;;;;;;;8.87;62.90;99387.75;5032944;28;19913;-89
2024/01/06 07:24:30;;;;;;;;;;;;;;;8.87;63.36;99385.13;5033264;28;19917;-87
2024/01/06 07:26:55;;;;;;;;;;;;;;;8.92;63.12;99387.28;5031625;28;20401;-88
2024/01/06 07:29:21;;;;;;;;;;;;;;;8.95;63.28;99389.56;5032810;28;19920;-88
2024/01/06 07:31:47;;;;;;;;;;;;;;;8.93;63.32;99394.19;5032748;28;19913;-88
2024/01/06 07:34:12;;;;;;;;;;;;;;;8.95;63.27;99381.69;5031586;28;19932;-87
2024/01/06 07:36:38;;;;;;;;;;;;;;;8.96;63.44;99378.06;5031348;28;20004;-88
2024/01/06 07:39:04;;;;;;;;;;;;;;;8.98;63.56;99383.16;5031303;28;20003;-88
2024/01/06 07:41:31;;;;;;;;;;;;;;;8.98;63.41;99385.78;5031341;28;19913;-88
2024/01/06 07:43:57;;;;;;;;;;;;;;;8.97;63.95;99384.97;5031411;28;19921;-88
2024/01/06 07:46:22;;;;;;;;;;;;;;;8.94;63.67;99381.84;5032595;28;20007;-88
2024/01/06 07:48:47;;;;;;;;;;;;;;;8.94;63.97;99387.13;5031153;28;20349;-88
2024/01/06 07:51:13;;;;;;;;;;;;;;;8.92;63.69;99384.66;5032288;28;19920;-88
2024/01/06 07:53:38;;;;;;;;;;;;;;;8.91;64.36;99378.53;5032154;28;19920;-88
2024/01/06 07:56:03;;;;;;;;;;;;;;;8.94;63.43;99366.88;5031900;28;19913;-87
2024/01/06 07:58:29;;;;;;;;;;;;;;;8.95;63.41;99357.97;5030915;28;20339;-87
2024/01/06 08:00:54;;;;;;;;;;;;;;;8.91;63.91;99360.09;5032120;28;19940;-87
2024/01/06 08:03:19;;;;;;;;;;;;;;;8.91;64.02;99367.19;5030954;28;19909;-87
2024/01/06 08:05:44;;;;;;;;;;;;;;;8.95;64.05;99368.50;5031894;28;19920;-87
2024/01/06 08:08:10;;;;;;;;;;;;;;;9.01;64.26;99359.09;5032122;28;19913;-87
2024/01/06 08:10:36;;;;;;;;;;;;;;;9.03;64.48;99365.00;5031956;28;19913;-87
2024/01/06 08:13:01;;;;;;;;;;;;;;;9.06;64.57;99362.03;5030556;28;19920;-86
2024/01/06 08:15:26;;;;;;;;;;;;;;;9.08;64.43;99360.88;5031951;28;19951;-88
2024/01/06 08:17:52;;;;;;;;;;;;;;;9.14;64.09;99362.81;5030796;28;19968;-87
2024/01/06 08:20:18;;;;;;;;;;;;;;;9.21;63.96;99361.13;5030847;28;19913;-87
2024/01/06 08:22:43;;;;;;;;;;;;;;;9.28;63.69;99363.88;5030709;28;19921;-87
2024/01/06 08:25:09;;;;;;;;;;;;;;;9.34;63.82;99368.47;5030567;28;19918;-87
2024/01/06 08:27:34;;;;;;;;;;;;;;;9.38;63.57;99364.47;5030838;28;19920;-87
2024/01/06 08:30:00;;;;;;;;;;;;;;;9.42;63.45;99360.50;5030497;28;19970;-87
2024/01/06 08:32:25;;;;;;;;;;;;;;;9.43;63.29;99367.41;5029842;28;20302;-87
2024/01/06 08:34:50;;;;;;;;;;;;;;;9.43;63.10;99367.41;5030384;28;19960;-87
2024/01/06 08:37:15;;;;;;;;;;;;;;;9.43;63.27;99358.69;5031783;28;19913;-86
2024/01/06 08:39:41;;;;;;;;;;;;;;;9.47;63.65;99359.97;5031823;28;20367;-86
2024/01/06 08:42:06;;;;;;;;;;;;;;;9.51;63.41;99359.44;5030412;28;19913;-87
2024/01/06 08:44:31;;;;;;;;;;;;;;;9.56;63.08;99348.38;5030642;28;19918;-86
2024/01/06 08:46:57;;;;;;;;;;;;;;;9.58;63.61;99349.03;5031775;28;19967;-86
2024/01/06 08:49:22;;;;;;;;;;;;;;;9.60;63.00;99347.03;5030308;28;19917;-87
2024/01/06 08:51:47;;;;;;;;;;;;;;;9.60;63.66;99352.31;5031589;28;19913;-86
2024/01/06 08:54:13;;;;;;;;;;;;;;;9.60;63.27;99348.84;5030380;28;19920;-87
2024/01/06 08:56:38;;;;;;;;;;;;;;;9.64;63.54;99344.84;5030340;28;19921;-87
2024/01/06 08:59:03;;;;;;;;;;;;;;;9.64;63.70;99343.03;5030393;28;19935;-87
2024/01/06 09:01:28;;;;;;;;;;;;;;;9.68;63.74;99348.81;5031437;28;19913;-87
2024/01/06 09:03:54;;;;;;;;;;;;;;;9.69;63.63;99339.91;5031525;28;19917;-87
2024/01/06 09:06:19;;;;;;;;;;;;;;;9.73;63.55;99335.91;5030469;28;19920;-87
2024/01/06 09:08:44;;;;;;;;;;;;;;;9.78;63.23;99337.03;5031573;28;19919;-88
2024/01/06 09:11:09;;;;;;;;;;;;;;;9.83;63.15;99328.56;5030118;28;20392;-86
2024/01/06 09:13:35;;;;;;;;;;;;;;;9.83;63.36;99328.56;5031562;28;19920;-87
2024/01/06 09:16:00;;;;;;;;;;;;;;;9.83;63.73;99323.31;5030211;28;20350;-87
2024/01/06 09:18:28;;;;;;;;;;;;;;;9.88;63.50;99310.41;5030137;28;19920;-86
2024/01/06 09:20:54;;;;;;;;;;;;;;;9.95;63.56;99307.88;5031507;28;19913;-86
2024/01/06 09:23:19;;;;;;;;;;;;;;;9.99;63.43;99301.25;5029892;28;20321;-86
2024/01/06 09:25:45;;;;;;;;;;;;;;;10.00;63.00;99301.06;5029932;28;19917;-87
2024/01/06 09:28:10;;;;;;;;;;;;;;;10.03;63.10;99305.16;5029833;28;19913;-86
2024/01/06 09:30:37;;;;;;;;;;;;;;;10.07;63.27;99307.25;5031141;28;19957;-87
2024/01/06 09:33:02;;;;;;;;;;;;;;;10.08;63.09;99295.69;5030089;28;20408;-88
2024/01/06 09:35:27;;;;;;;;;;;;;;;10.12;63.63;99299.63;5031217;28;19917;-88
2024/01/06 09:37:52;;;;;;;;;;;;;;;10.18;63.13;99298.88;5030025;28;20394;-86
2024/01/06 09:40:21;;;;;;;;;;;;;;;10.24;63.61;99286.81;5031916;28;19913;-86
2024/01/06 09:42:46;;;;;;;;;;;;;;;10.30;62.80;99298.47;5031258;28;19913;-87
2024/01/06 09:45:11;;;;;;;;;;;;;;;10.33;63.11;99284.91;5034788;28;19924;-86
2024/01/06 09:47:38;;;;;;;;;;;;;;;10.31;62.89;99271.91;5034885;28;19920;-86
2024/01/06 09:50:06;;;;;;;;;;;;;;;10.30;62.27;99278.16;5033455;28;19967;-86
2024/01/06 09:52:32;;;;;;;;;;;;;;;10.27;62.99;99254.78;5033492;28;20078;-86
2024/01/06 09:54:59;;;;;;;;;;;;;;;10.20;63.79;99275.00;5033059;28;20383;-86
2024/01/06 09:57:25;;;;;;;;;;;;;;;10.16;63.61;99253.41;5033286;28;19971;-86
2024/01/06 09:59:51;;;;;;;;;;;;;;;10.11;63.14;99279.50;5033329;28;19917;-86
2024/01/06 10:02:17;;;;;;;;;;;;;;;10.12;63.55;99259.22;5033213;28;19913;-87
2024/01/06 10:04:43;;;;;;;;;;;;;;;10.11;64.23;99258.41;5033384;28;19940;-86
2024/01/06 10:07:12;;;;;;;;;;;;;;;10.06;64.31;99265.22;5034399;28;19932;-87
2024/01/06 10:09:37;;;;;;;;;;;;;;;10.09;64.38;99243.75;5033034;28;20357;-87
2024/01/06 10:12:03;;;;;;;;;;;;;;;10.08;64.10;99253.50;5034367;28;19917;-87
2024/01/06 10:14:28;;;;;;;;;;;;;;;10.10;64.38;99237.47;5032793;28;19914;-87
2024/01/06 10:16:53;;;;;;;;;;;;;;;10.13;64.43;99239.75;5034027;28;19944;-87
2024/01/06 10:19:19;;;;;;;;;;;;;;;10.18;64.29;99237.38;5033949;28;19963;-87
2024/01/06 10:21:44;;;;;;;;;;;;;;;10.20;63.99;99222.22;5032880;28;19913;-86
2024/01/06 10:24:10;;;;;;;;;;;;;;;10.24;63.75;99227.94;5032630;28;20410;-87
2024/01/06 10:26:35;;;;;;;;;;;;;;;10.23;64.24;99228.94;5033992;28;19920;-87
2024/01/06 10:29:01;;;;;;;;;;;;;;;10.17;63.93;99222.56;5033898;28;19917;-87
2024/01/06 10:31:26;;;;;;;;;;;;;;;10.14;64.26;99215.84;5032596;28;20361;-87
2024/01/06 10:33:51;;;;;;;;;;;;;;;10.13;63.73;99208.09;5034179;28;19917;-87
2024/01/06 10:36:17;;;;;;;;;;;;;;;10.13;63.84;99208.91;5035200;28;19913;-86
2024/01/06 10:38:44;;;;;;;;;;;;;;;10.12;63.81;99203.81;5033927;28;19959;-87
2024/01/06 10:41:11;;;;;;;;;;;;;;;10.11;64.88;99195.09;5033565;28;19913;-86
2024/01/06 10:43:40;;;;;;;;;;;;;;;10.11;63.92;99194.28;5033363;28;19932;-87
2024/01/06 10:46:09;;;;;;;;;;;;;;;10.07;64.10;99187.72;5032234;28;20398;-87
2024/01/06 10:48:35;;;;;;;;;;;;;;;10.05;64.80;99177.38;5033345;28;19979;-86
2024/01/06 10:51:02;;;;;;;;;;;;;;;10.04;64.83;99174.91;5033483;28;19913;-86
2024/01/06 10:53:27;;;;;;;;;;;;;;;10.05;64.72;99160.72;5032056;28;20039;-87
2024/01/06 10:55:53;;;;;;;;;;;;;;;10.09;65.02;99159.34;5031757;28;19965;-88
2024/01/06 10:58:18;;;;;;;;;;;;;;;10.08;64.24;99155.91;5033461;28;20356;-88
2024/01/06 11:00:44;;;;;;;;;;;;;;;10.07;64.41;99164.00;5032365;28;19917;-88
2024/01/06 11:03:09;;;;;;;;;;;;;;;10.05;64.98;99155.44;5031979;28;19956;-87
2024/01/06 11:05:35;;;;;;;;;;;;;;;10.06;64.61;99154.44;5031800;28;20493;-87
2024/01/06 11:08:01;;;;;;;;;;;;;;;10.04;64.99;99156.44;5033326;28;19913;-88
2024/01/06 11:10:29;;;;;;;;;;;;;;;10.05;66.06;99143.06;5031979;28;19920;-86
2024/01/06 11:13:11;;;;;;;;;;;;;;;10.03;65.33;99155.63;5031929;28;19952;-87
2024/01/06 11:15:44;;;;;;;;;;;;;;;10.02;65.85;99150.53;5031826;28;20000;-87
2024/01/06 11:18:29;;;;;;;;;;;;;;;9.98;66.76;99149.28;5033140;28;19914;-87
2024/01/06 11:21:13;;;;;;;;;;;;;;;9.99;66.02;99141.19;5032601;28;19971;-87
2024/01/06 11:23:38;;;;;;;;;;;;;;;10.01;65.76;99144.44;5031344;28;19974;-87
2024/01/06 11:26:06;;;;;;;;;;;;;;;9.98;65.45;99129.00;5032790;28;19917;-87
2024/01/06 11:28:31;;;;;;;;;;;;;;;9.99;66.05;99140.34;5032936;28;19913;-87
2024/01/06 11:31:09;;;;;;;;;;;;;;;10.01;65.86;99138.34;5031603;28;19913;-87
2024/01/06 11:33:41;;;;;;;;;;;;;;;10.03;65.61;99134.53;5031575;28;20429;-86
2024/01/06 11:36:08;;;;;;;;;;;;;;;10.05;66.20;99119.34;5031542;28;20370;-87
2024/01/06 11:38:37;;;;;;;;;;;;;;;10.04;65.50;99112.44;5031249;28;19967;-86
2024/01/06 11:41:02;;;;;;;;;;;;;;;10.03;65.57;99115.25;5031168;28;20992;-87
2024/01/06 11:43:27;;;;;;;;;;;;;;;10.01;65.63;99115.44;5032413;28;20000;-88
2024/01/06 11:45:56;;;;;;;;;;;;;;;10.03;66.30;99109.97;5032656;28;19920;-86
2024/01/06 11:48:23;;;;;;;;;;;;;;;10.04;66.78;99112.44;5032526;28;19967;-88
2024/01/06 11:50:49;;;;;;;;;;;;;;;10.02;66.89;99095.97;5031260;28;20456;-86
2024/01/06 11:53:15;;;;;;;;;;;;;;;10.04;66.81;99093.97;5031279;28;20398;-87
2024/01/06 11:55:42;;;;;;;;;;;;;;;10.05;66.60;99092.97;5032377;28;19959;-87
2024/01/06 11:58:07;;;;;;;;;;;;;;;10.06;66.26;99102.50;5032280;28;19959;-87
2024/01/06 12:00:33;;;;;;;;;;;;;;;10.04;66.87;99082.59;5031121;28;19945;-88
2024/01/06 12:03:00;;;;;;;;;;;;;;;10.04;67.19;99093.97;5032625;28;19913;-88
2024/01/06 12:05:26;;;;;;;;;;;;;;;10.00;66.75;99095.34;5031970;28;19917;-88
2024/01/06 12:07:59;;;;;;;;;;;;;;;10.05;67.11;99094.78;5031720;28;20380;-88
2024/01/06 12:10:25;;;;;;;;;;;;;;;10.06;66.93;99104.31;5032004;28;19913;-88
2024/01/06 12:12:58;;;;;;;;;;;;;;;10.07;66.99;99088.31;5031940;28;19917;-88
2024/01/06 12:15:23;;;;;;;;;;;;;;;10.10;67.30;99095.84;5031940;28;19913;-88
2024/01/06 12:17:48;;;;;;;;;;;;;;;10.12;67.24;99098.31;5031916;28;19920;-88
2024/01/06 12:20:14;;;;;;;;;;;;;;;10.08;67.10;99103.13;5031898;28;20455;-88
2024/01/06 12:22:39;;;;;;;;;;;;;;;10.10;67.82;99084.50;5030414;28;19921;-88
2024/01/06 12:25:06;;;;;;;;;;;;;;;10.12;68.81;99079.84;5031603;28;19939;-87
2024/01/06 12:27:33;;;;;;;;;;;;;;;10.13;68.27;99082.28;5030089;28;20471;-88
2024/01/06 12:29:58;;;;;;;;;;;;;;;10.17;66.65;99080.91;5030255;28;19920;-88
2024/01/06 12:32:25;;;;;;;;;;;;;;;10.22;66.00;99088.31;5031942;28;20030;-88
2024/01/06 12:34:50;;;;;;;;;;;;;;;10.25;67.16;99076.56;5030467;28;19909;-88
2024/01/06 12:37:16;;;;;;;;;;;;;;;10.28;67.20;99081.47;5031822;28;19935;-88
2024/01/06 12:39:45;;;;;;;;;;;;;;;10.32;67.14;99078.25;5031669;28;19917;-88
2024/01/06 12:42:10;;;;;;;;;;;;;;;10.34;67.96;99076.25;5030342;28;20382;-88
2024/01/06 12:44:38;;;;;;;;;;;;;;;10.36;66.68;99081.34;5031576;28;19923;-88
2024/01/06 12:47:03;;;;;;;;;;;;;;;10.39;67.18;99073.88;5031431;28;20420;-88